Terminal Aerodrome Forecast
Issued by NWS

Home | Current Version | Previous Version | Text Only | Print | Product List | Glossary On
Versions: 1 2 3 4 5 6 7 8 9 10 11 12 13 14 15 16 17 18 19 20
000
FTUS42 TJSJ 221500 AAB
TAFISX
TAF AMD
TISX 221512Z 2215/2312 11008KT P6SM VCTS SCT015CB BKN050 OVC070
      TEMPO 2216/2218 VRB06KT 4SM +SHRA BKN020 OVC040
     FM221800 13015KT P6SM VCTS SCT015CB BKN025 OVC040=

USA.gov is the U.S. government's official web portal to all federal, state and local government web resources and services.